sensor_id;sensor_type;location;lat;lon;timestamp;pressure;altitude;pressure_sealevel;temperature;humidity
74633;BME280;63139;52.018;8.552;2023-07-20T00:00:24;100250.66;;;16.62;89.38
74633;BME280;63139;52.018;8.552;2023-07-20T00:03:11;100254.38;;;16.55;90.80
74633;BME280;63139;52.018;8.552;2023-07-20T00:05:43;100249.69;;;16.50;89.83
74633;BME280;63139;52.018;8.552;2023-07-20T00:08:11;100246.41;;;16.42;89.95
74633;BME280;63139;52.018;8.552;2023-07-20T00:10:40;100253.44;;;16.36;90.34
74633;BME280;63139;52.018;8.552;2023-07-20T00:13:08;100248.31;;;16.28;90.90
74633;BME280;63139;52.018;8.552;2023-07-20T00:15:36;100247.31;;;16.22;90.91
74633;BME280;63139;52.018;8.552;2023-07-20T00:18:04;100246.91;;;16.19;91.16
74633;BME280;63139;52.018;8.552;2023-07-20T00:20:33;100248.13;;;16.16;91.72
74633;BME280;63139;52.018;8.552;2023-07-20T00:23:01;100246.09;;;16.12;92.30
74633;BME280;63139;52.018;8.552;2023-07-20T00:25:29;100248.97;;;16.10;92.98
74633;BME280;63139;52.018;8.552;2023-07-20T00:27:57;100250.84;;;16.10;92.77
74633;BME280;63139;52.018;8.552;2023-07-20T00:30:25;100244.66;;;16.09;93.70
74633;BME280;63139;52.018;8.552;2023-07-20T00:32:53;100247.97;;;16.11;93.47
74633;BME280;63139;52.018;8.552;2023-07-20T00:35:22;100248.38;;;16.15;93.72
74633;BME280;63139;52.018;8.552;2023-07-20T00:37:51;100242.59;;;16.18;93.96
74633;BME280;63139;52.018;8.552;2023-07-20T00:40:20;100246.69;;;16.20;93.86
74633;BME280;63139;52.018;8.552;2023-07-20T00:42:48;100237.88;;;16.20;93.80
74633;BME280;63139;52.018;8.552;2023-07-20T00:45:22;100246.69;;;16.20;94.39
74633;BME280;63139;52.018;8.552;2023-07-20T00:47:51;100247.09;;;16.24;94.23
74633;BME280;63139;52.018;8.552;2023-07-20T00:50:19;100250.53;;;16.38;94.03
74633;BME280;63139;52.018;8.552;2023-07-20T00:52:47;100247.44;;;16.41;93.77
74633;BME280;63139;52.018;8.552;2023-07-20T00:55:19;100249.13;;;16.35;94.25
74633;BME280;63139;52.018;8.552;2023-07-20T00:57:47;100247.06;;;16.37;94.05
74633;BME280;63139;52.018;8.552;2023-07-20T01:00:16;100243.94;;;16.40;94.22
74633;BME280;63139;52.018;8.552;2023-07-20T01:02:44;100237.78;;;16.40;94.09
74633;BME280;63139;52.018;8.552;2023-07-20T01:05:13;100236.09;;;16.52;93.14
74633;BME280;63139;52.018;8.552;2023-07-20T01:07:46;100236.09;;;16.45;93.06
74633;BME280;63139;52.018;8.552;2023-07-20T01:10:27;100232.66;;;16.38;93.19
74633;BME280;63139;52.018;8.552;2023-07-20T01:12:57;100230.00;;;16.31;93.02
74633;BME280;63139;52.018;8.552;2023-07-20T01:15:25;100226.13;;;16.27;93.09
74633;BME280;63139;52.018;8.552;2023-07-20T01:17:53;100237.19;;;16.31;93.23
74633;BME280;63139;52.018;8.552;2023-07-20T01:20:21;100241.56;;;16.19;94.28
74633;BME280;63139;52.018;8.552;2023-07-20T01:25:57;100223.50;;;16.14;94.37
74633;BME280;63139;52.018;8.552;2023-07-20T01:28:39;100229.25;;;16.11;94.38
74633;BME280;63139;52.018;8.552;2023-07-20T01:31:21;100230.50;;;16.09;94.46
74633;BME280;63139;52.018;8.552;2023-07-20T01:33:52;100230.09;;;16.05;94.25
74633;BME280;63139;52.018;8.552;2023-07-20T01:36:22;100221.91;;;16.00;94.25
74633;BME280;63139;52.018;8.552;2023-07-20T01:38:52;100231.16;;;15.98;94.64
74633;BME280;63139;52.018;8.552;2023-07-20T01:41:20;100231.34;;;15.96;94.94
74633;BME280;63139;52.018;8.552;2023-07-20T01:43:48;100222.72;;;15.94;95.58
74633;BME280;63139;52.018;8.552;2023-07-20T01:46:18;100227.25;;;15.93;95.66
74633;BME280;63139;52.018;8.552;2023-07-20T01:48:46;100223.53;;;15.95;95.78
74633;BME280;63139;52.018;8.552;2023-07-20T01:51:14;100221.06;;;16.06;95.30
74633;BME280;63139;52.018;8.552;2023-07-20T01:53:44;100217.94;;;16.09;94.78
74633;BME280;63139;52.018;8.552;2023-07-20T01:56:13;100217.13;;;16.09;94.61
74633;BME280;63139;52.018;8.552;2023-07-20T01:58:41;100221.50;;;15.97;95.53
74633;BME280;63139;52.018;8.552;2023-07-20T02:01:09;100221.06;;;16.06;95.24
74633;BME280;63139;52.018;8.552;2023-07-20T02:03:38;100218.44;;;15.93;95.84
74633;BME280;63139;52.018;8.552;2023-07-20T02:06:06;100217.63;;;15.93;95.70
74633;BME280;63139;52.018;8.552;2023-07-20T02:08:34;100221.31;;;15.91;95.75
74633;BME280;63139;52.018;8.552;2023-07-20T02:11:02;100221.09;;;15.93;95.83
74633;BME280;63139;52.018;8.552;2023-07-20T02:13:31;100226.84;;;15.97;96.09
74633;BME280;63139;52.018;8.552;2023-07-20T02:15:59;100225.81;;;15.98;96.30
74633;BME280;63139;52.018;8.552;2023-07-20T02:18:27;100232.59;;;16.00;96.71
74633;BME280;63139;52.018;8.552;2023-07-20T02:20:56;100223.13;;;16.04;96.32
74633;BME280;63139;52.018;8.552;2023-07-20T02:23:24;100223.28;;;16.09;96.47
74633;BME280;63139;52.018;8.552;2023-07-20T02:25:52;100228.84;;;16.14;95.86
74633;BME280;63139;52.018;8.552;2023-07-20T02:28:20;100223.69;;;16.19;95.64
74633;BME280;63139;52.018;8.552;2023-07-20T02:30:47;100215.84;;;16.24;96.07
74633;BME280;63139;52.018;8.552;2023-07-20T02:33:16;100214.41;;;16.28;95.57
74633;BME280;63139;52.018;8.552;2023-07-20T02:35:43;100220.97;;;16.33;95.29
74633;BME280;63139;52.018;8.552;2023-07-20T02:38:12;100219.94;;;16.34;94.89
74633;BME280;63139;52.018;8.552;2023-07-20T02:40:41;100222.59;;;16.34;94.38
74633;BME280;63139;52.018;8.552;2023-07-20T02:43:09;100218.91;;;16.35;94.39
74633;BME280;63139;52.018;8.552;2023-07-20T02:45:40;100219.94;;;16.34;93.97
74633;BME280;63139;52.018;8.552;2023-07-20T02:48:08;100221.56;;;16.35;93.67
74633;BME280;63139;52.018;8.552;2023-07-20T02:50:36;100222.59;;;16.34;93.72
74633;BME280;63139;52.018;8.552;2023-07-20T02:53:04;100215.63;;;16.33;93.56
74633;BME280;63139;52.018;8.552;2023-07-20T02:55:34;100226.31;;;16.33;93.73
74633;BME280;63139;52.018;8.552;2023-07-20T02:58:02;100226.31;;;16.33;93.72
74633;BME280;63139;52.018;8.552;2023-07-20T03:00:29;100222.81;;;16.32;93.37
74633;BME280;63139;52.018;8.552;2023-07-20T03:02:57;100219.75;;;16.28;93.00
74633;BME280;63139;52.018;8.552;2023-07-20T03:05:25;100221.41;;;16.23;93.37
74633;BME280;63139;52.018;8.552;2023-07-20T03:07:55;100222.03;;;16.18;93.05
74633;BME280;63139;52.018;8.552;2023-07-20T03:10:22;100219.81;;;16.15;93.18
74633;BME280;63139;52.018;8.552;2023-07-20T03:12:52;100224.53;;;16.13;93.09
74633;BME280;63139;52.018;8.552;2023-07-20T03:15:19;100228.22;;;16.12;93.05
74633;BME280;63139;52.018;8.552;2023-07-20T03:17:47;100227.22;;;16.13;93.49
74633;BME280;63139;52.018;8.552;2023-07-20T03:20:16;100224.75;;;16.12;93.36
74633;BME280;63139;52.018;8.552;2023-07-20T03:22:43;100233.56;;;16.12;93.26
74633;BME280;63139;52.018;8.552;2023-07-20T03:25:12;100231.94;;;16.11;93.57
74633;BME280;63139;52.018;8.552;2023-07-20T03:27:40;100236.25;;;16.12;93.32
74633;BME280;63139;52.018;8.552;2023-07-20T03:30:10;100229.06;;;16.13;93.57
74633;BME280;63139;52.018;8.552;2023-07-20T03:32:38;100242.22;;;16.14;93.28
74633;BME280;63139;52.018;8.552;2023-07-20T03:35:07;100239.53;;;16.14;93.11
74633;BME280;63139;52.018;8.552;2023-07-20T03:37:34;100236.63;;;16.16;92.97
74633;BME280;63139;52.018;8.552;2023-07-20T03:40:03;100235.59;;;16.17;92.88
74633;BME280;63139;52.018;8.552;2023-07-20T03:42:32;100236.63;;;16.16;92.82
74633;BME280;63139;52.018;8.552;2023-07-20T03:45:00;100248.13;;;16.16;93.14
74633;BME280;63139;52.018;8.552;2023-07-20T03:47:32;100241.59;;;16.12;92.78
74633;BME280;63139;52.018;8.552;2023-07-20T03:50:00;100256.00;;;16.05;92.93
74633;BME280;63139;52.018;8.552;2023-07-20T03:52:31;100267.53;;;15.79;98.09
74633;BME280;63139;52.018;8.552;2023-07-20T03:54:59;100264.47;;;15.56;98.52
74633;BME280;63139;52.018;8.552;2023-07-20T03:57:27;100271.59;;;15.35;98.95
74633;BME280;63139;52.018;8.552;2023-07-20T03:59:55;100264.81;;;15.20;100.00
74633;BME280;63139;52.018;8.552;2023-07-20T04:02:22;100276.28;;;15.07;100.00
74633;BME280;63139;52.018;8.552;2023-07-20T04:04:52;100273.81;;;14.99;100.00
74633;BME280;63139;52.018;8.552;2023-07-20T04:07:20;100273.59;;;14.94;100.00
74633;BME280;63139;52.018;8.552;2023-07-20T04:09:48;100281.41;;;14.89;100.00
74633;BME280;63139;52.018;8.552;2023-07-20T04:12:16;100279.91;;;14.80;100.00
74633;BME280;63139;52.018;8.552;2023-07-20T04:14:44;100286.88;;;14.74;100.00
74633;BME280;63139;52.018;8.552;2023-07-20T04:17:12;100291.78;;;14.70;99.78
74633;BME280;63139;52.018;8.552;2023-07-20T04:19:40;100290.31;;;14.61;98.93
74633;BME280;63139;52.018;8.552;2023-07-20T04:22:09;100289.28;;;14.62;98.80
74633;BME280;63139;52.018;8.552;2023-07-20T04:24:37;100285.56;;;14.57;97.91
74633;BME280;63139;52.018;8.552;2023-07-20T04:27:05;100281.47;;;14.54;98.47
74633;BME280;63139;52.018;8.552;2023-07-20T04:29:33;100289.44;;;14.54;98.97
74633;BME280;63139;52.018;8.552;2023-07-20T04:32:01;100293.97;;;14.54;99.30
74633;BME280;63139;52.018;8.552;2023-07-20T04:34:29;100302.16;;;14.52;98.97
74633;BME280;63139;52.018;8.552;2023-07-20T04:36:57;100299.28;;;14.54;98.55
74633;BME280;63139;52.018;8.552;2023-07-20T04:39:28;100307.91;;;14.56;98.34
74633;BME280;63139;52.018;8.552;2023-07-20T04:42:04;100306.91;;;14.57;98.10
74633;BME280;63139;52.018;8.552;2023-07-20T04:44:32;100311.00;;;14.59;98.18
74633;BME280;63139;52.018;8.552;2023-07-20T04:47:00;100311.00;;;14.59;98.16
74633;BME280;63139;52.018;8.552;2023-07-20T04:49:32;100307.72;;;14.57;98.45
74633;BME280;63139;52.018;8.552;2023-07-20T04:52:00;100311.41;;;14.56;98.42
74633;BME280;63139;52.018;8.552;2023-07-20T04:54:31;100312.22;;;14.57;97.69
74633;BME280;63139;52.018;8.552;2023-07-20T04:56:59;100316.75;;;14.63;97.79
74633;BME280;63139;52.018;8.552;2023-07-20T04:59:27;100315.34;;;14.67;97.50
74633;BME280;63139;52.018;8.552;2023-07-20T05:01:55;100311.63;;;14.68;96.98
74633;BME280;63139;52.018;8.552;2023-07-20T05:04:23;100311.44;;;14.69;96.75
74633;BME280;63139;52.018;8.552;2023-07-20T05:07:04;100309.63;;;14.76;96.88
74633;BME280;63139;52.018;8.552;2023-07-20T05:09:33;100316.47;;;14.92;96.11
74633;BME280;63139;52.018;8.552;2023-07-20T05:12:01;100309.09;;;15.01;95.24
74633;BME280;63139;52.018;8.552;2023-07-20T05:14:29;100302.38;;;15.11;94.42
74633;BME280;63139;52.018;8.552;2023-07-20T05:16:57;100316.31;;;15.20;94.13
74633;BME280;63139;52.018;8.552;2023-07-20T05:19:25;100309.97;;;15.34;93.02
74633;BME280;63139;52.018;8.552;2023-07-20T05:21:53;100312.28;;;15.57;91.93
74633;BME280;63139;52.018;8.552;2023-07-20T05:24:22;100319.91;;;15.67;91.08
74633;BME280;63139;52.018;8.552;2023-07-20T05:26:51;100320.31;;;15.70;90.30
74633;BME280;63139;52.018;8.552;2023-07-20T05:29:20;100316.41;;;15.73;90.09
74633;BME280;63139;52.018;8.552;2023-07-20T05:31:48;100321.34;;;15.82;88.67
74633;BME280;63139;52.018;8.552;2023-07-20T05:34:16;100324.63;;;15.91;88.19
74633;BME280;63139;52.018;8.552;2023-07-20T05:36:44;100313.94;;;15.98;87.53
74633;BME280;63139;52.018;8.552;2023-07-20T05:39:29;100320.09;;;15.98;87.52
74633;BME280;63139;52.018;8.552;2023-07-20T05:41:58;100328.31;;;15.97;87.15
74633;BME280;63139;52.018;8.552;2023-07-20T05:44:26;100333.47;;;15.98;87.35
74633;BME280;63139;52.018;8.552;2023-07-20T05:46:54;100333.44;;;16.05;87.49
74633;BME280;63139;52.018;8.552;2023-07-20T05:49:24;100330.97;;;16.10;86.89
74633;BME280;63139;52.018;8.552;2023-07-20T05:51:52;100332.59;;;16.24;86.51
74633;BME280;63139;52.018;8.552;2023-07-20T05:54:19;100333.38;;;16.31;85.23
74633;BME280;63139;52.018;8.552;2023-07-20T05:56:47;100323.72;;;16.43;84.47
74633;BME280;63139;52.018;8.552;2023-07-20T05:59:17;100330.47;;;16.52;82.90
74633;BME280;63139;52.018;8.552;2023-07-20T06:01:46;100327.56;;;16.60;82.19
74633;BME280;63139;52.018;8.552;2023-07-20T06:04:15;100338.47;;;16.72;81.55
74633;BME280;63139;52.018;8.552;2023-07-20T06:06:43;100339.44;;;16.78;80.78
74633;BME280;63139;52.018;8.552;2023-07-20T06:09:11;100336.72;;;16.91;80.35
74633;BME280;63139;52.018;8.552;2023-07-20T06:11:39;100344.06;;;17.08;79.76
74633;BME280;63139;52.018;8.552;2023-07-20T06:14:07;100343.50;;;17.31;78.37
74633;BME280;63139;52.018;8.552;2023-07-20T06:16:36;100352.19;;;17.58;77.29
74633;BME280;63139;52.018;8.552;2023-07-20T06:19:04;100345.97;;;17.71;77.22
74633;BME280;63139;52.018;8.552;2023-07-20T06:21:32;100349.03;;;17.36;78.65
74633;BME280;63139;52.018;8.552;2023-07-20T06:23:59;100358.34;;;17.34;77.97
74633;BME280;63139;52.018;8.552;2023-07-20T06:26:27;100348.94;;;17.81;76.80
74633;BME280;63139;52.018;8.552;2023-07-20T06:28:56;100348.72;;;18.50;73.92
74633;BME280;63139;52.018;8.552;2023-07-20T06:31:24;100357.91;;;18.79;73.05
74633;BME280;63139;52.018;8.552;2023-07-20T06:33:53;100360.91;;;18.46;73.36
74633;BME280;63139;52.018;8.552;2023-07-20T06:36:21;100357.53;;;18.57;73.70
74633;BME280;63139;52.018;8.552;2023-07-20T06:38:49;100355.06;;;18.56;74.43
74633;BME280;63139;52.018;8.552;2023-07-20T06:41:20;100359.97;;;18.95;73.21
74633;BME280;63139;52.018;8.552;2023-07-20T06:43:51;100364.53;;;18.77;72.57
74633;BME280;63139;52.018;8.552;2023-07-20T06:46:24;100365.78;;;18.56;72.22
74633;BME280;63139;52.018;8.552;2023-07-20T06:48:55;100372.13;;;18.61;71.42
74633;BME280;63139;52.018;8.552;2023-07-20T06:51:26;100371.56;;;18.35;69.84
74633;BME280;63139;52.018;8.552;2023-07-20T06:53:54;100372.06;;;18.25;71.04
74633;BME280;63139;52.018;8.552;2023-07-20T06:56:22;100370.31;;;18.12;70.53
74633;BME280;63139;52.018;8.552;2023-07-20T06:58:52;100375.47;;;17.89;71.57
74633;BME280;63139;52.018;8.552;2023-07-20T07:01:20;100373.94;;;17.75;71.97
74633;BME280;63139;52.018;8.552;2023-07-20T07:03:49;100369.88;;;17.66;72.96
74633;BME280;63139;52.018;8.552;2023-07-20T07:06:22;100378.72;;;17.66;71.31
74633;BME280;63139;52.018;8.552;2023-07-20T07:08:52;100376.03;;;17.98;70.89
74633;BME280;63139;52.018;8.552;2023-07-20T07:11:20;100377.94;;;17.91;69.24
74633;BME280;63139;52.018;8.552;2023-07-20T07:13:48;100385.25;;;18.02;69.94
74633;BME280;63139;52.018;8.552;2023-07-20T07:16:18;100386.94;;;17.96;70.16
74633;BME280;63139;52.018;8.552;2023-07-20T07:18:50;100381.09;;;18.06;69.95
74633;BME280;63139;52.018;8.552;2023-07-20T07:21:18;100389.44;;;18.16;69.82
74633;BME280;63139;52.018;8.552;2023-07-20T07:23:47;100386.66;;;18.29;69.21
74633;BME280;63139;52.018;8.552;2023-07-20T07:26:16;100385.09;;;18.21;68.83
74633;BME280;63139;52.018;8.552;2023-07-20T07:28:43;100382.03;;;18.18;68.66
74633;BME280;63139;52.018;8.552;2023-07-20T07:31:12;100387.16;;;18.19;68.99
74633;BME280;63139;52.018;8.552;2023-07-20T07:33:40;100395.97;;;18.27;68.71
74633;BME280;63139;52.018;8.552;2023-07-20T07:36:07;100395.75;;;18.28;68.78
74633;BME280;63139;52.018;8.552;2023-07-20T07:38:35;100394.03;;;18.15;68.23
74633;BME280;63139;52.018;8.552;2023-07-20T07:41:25;100395.69;;;18.10;68.08
74633;BME280;63139;52.018;8.552;2023-07-20T07:43:53;100401.50;;;18.07;67.53
74633;BME280;63139;52.018;8.552;2023-07-20T07:46:21;100402.75;;;18.04;67.86
74633;BME280;63139;52.018;8.552;2023-07-20T07:48:49;100401.53;;;18.25;67.96
74633;BME280;63139;52.018;8.552;2023-07-20T07:51:17;100400.72;;;18.24;66.45
74633;BME280;63139;52.018;8.552;2023-07-20T07:53:46;100411.66;;;18.23;67.01
74633;BME280;63139;52.018;8.552;2023-07-20T07:56:16;100410.31;;;18.14;66.83
74633;BME280;63139;52.018;8.552;2023-07-20T07:58:50;100414.03;;;18.13;65.32
74633;BME280;63139;52.018;8.552;2023-07-20T08:01:18;100416.03;;;18.17;64.84
74633;BME280;63139;52.018;8.552;2023-07-20T08:03:46;100410.41;;;18.26;64.16
74633;BME280;63139;52.018;8.552;2023-07-20T08:06:14;100420.25;;;18.32;64.41
74633;BME280;63139;52.018;8.552;2023-07-20T08:08:42;100413.97;;;18.44;63.49
74633;BME280;63139;52.018;8.552;2023-07-20T08:11:10;100412.09;;;18.88;63.02
74633;BME280;63139;52.018;8.552;2023-07-20T08:13:41;100406.00;;;19.29;63.60
74633;BME280;63139;52.018;8.552;2023-07-20T08:16:10;100412.31;;;19.34;61.49
74633;BME280;63139;52.018;8.552;2023-07-20T08:18:38;100424.44;;;19.07;61.54
74633;BME280;63139;52.018;8.552;2023-07-20T08:21:06;100419.97;;;19.01;62.14
74633;BME280;63139;52.018;8.552;2023-07-20T08:23:34;100421.44;;;19.15;61.78
74633;BME280;63139;52.018;8.552;2023-07-20T08:26:02;100419.69;;;19.39;60.79
74633;BME280;63139;52.018;8.552;2023-07-20T08:28:29;100419.66;;;19.57;59.99
74633;BME280;63139;52.018;8.552;2023-07-20T08:30:58;100417.06;;;19.81;59.77
74633;BME280;63139;52.018;8.552;2023-07-20T08:33:27;100415.09;;;19.88;59.15
74633;BME280;63139;52.018;8.552;2023-07-20T08:35:56;100422.31;;;19.87;60.35
74633;BME280;63139;52.018;8.552;2023-07-20T08:38:24;100414.94;;;19.71;60.25
74633;BME280;63139;52.018;8.552;2023-07-20T08:40:52;100426.09;;;19.56;59.23
74633;BME280;63139;52.018;8.552;2023-07-20T08:43:22;100420.94;;;19.25;58.43
74633;BME280;63139;52.018;8.552;2023-07-20T08:45:52;100435.31;;;19.12;59.54
74633;BME280;63139;52.018;8.552;2023-07-20T08:48:22;100429.28;;;19.17;59.22
74633;BME280;63139;52.018;8.552;2023-07-20T08:50:52;100428.53;;;19.10;57.88
74633;BME280;63139;52.018;8.552;2023-07-20T08:53:20;100423.53;;;19.13;58.91
74633;BME280;63139;52.018;8.552;2023-07-20T08:55:50;100425.31;;;19.19;58.32
74633;BME280;63139;52.018;8.552;2023-07-20T08:58:18;100418.88;;;19.38;57.75
74633;BME280;63139;52.018;8.552;2023-07-20T09:00:47;100418.59;;;19.76;56.54
74633;BME280;63139;52.018;8.552;2023-07-20T09:03:18;100424.25;;;19.98;55.30
74633;BME280;63139;52.018;8.552;2023-07-20T09:05:47;100435.66;;;19.82;54.63
74633;BME280;63139;52.018;8.552;2023-07-20T09:08:16;100423.97;;;19.76;55.20
74633;BME280;63139;52.018;8.552;2023-07-20T09:10:44;100432.66;;;19.60;55.04
74633;BME280;63139;52.018;8.552;2023-07-20T09:13:14;100426.09;;;19.56;54.78
74633;BME280;63139;52.018;8.552;2023-07-20T09:15:46;100422.25;;;19.64;54.88
74633;BME280;63139;52.018;8.552;2023-07-20T09:18:24;100428.94;;;19.61;53.92
74633;BME280;63139;52.018;8.552;2023-07-20T09:20:52;100417.47;;;19.54;54.48
74633;BME280;63139;52.018;8.552;2023-07-20T09:23:31;100417.59;;;19.59;53.88
74633;BME280;63139;52.018;8.552;2023-07-20T09:25:59;100416.22;;;19.68;52.99
74633;BME280;63139;52.018;8.552;2023-07-20T09:28:27;100422.53;;;19.74;52.91
74633;BME280;63139;52.018;8.552;2023-07-20T09:30:55;100421.97;;;19.84;53.83
74633;BME280;63139;52.018;8.552;2023-07-20T09:33:25;100419.91;;;19.97;52.39
74633;BME280;63139;52.018;8.552;2023-07-20T09:35:54;100428.31;;;20.01;51.44
74633;BME280;63139;52.018;8.552;2023-07-20T09:38:27;100429.88;;;20.20;49.32
74633;BME280;63139;52.018;8.552;2023-07-20T09:41:17;100438.09;;;20.48;50.08
74633;BME280;63139;52.018;8.552;2023-07-20T09:43:49;100434.00;;;20.69;48.63
74633;BME280;63139;52.018;8.552;2023-07-20T09:46:17;100436.25;;;21.12;49.92
74633;BME280;63139;52.018;8.552;2023-07-20T09:48:53;100427.91;;;21.37;47.88
74633;BME280;63139;52.018;8.552;2023-07-20T09:51:24;100423.53;;;21.93;48.80
74633;BME280;63139;52.018;8.552;2023-07-20T09:53:52;100429.97;;;21.75;47.14
74633;BME280;63139;52.018;8.552;2023-07-20T09:56:22;100428.44;;;21.51;47.51
74633;BME280;63139;52.018;8.552;2023-07-20T09:58:52;100437.94;;;21.42;45.11
74633;BME280;63139;52.018;8.552;2023-07-20T10:01:20;100428.66;;;21.49;46.40
74633;BME280;63139;52.018;8.552;2023-07-20T10:03:54;100421.00;;;21.41;46.38
74633;BME280;63139;52.018;8.552;2023-07-20T10:06:23;100420.56;;;21.33;47.09
74633;BME280;63139;52.018;8.552;2023-07-20T10:08:53;100419.53;;;21.22;45.91
74633;BME280;63139;52.018;8.552;2023-07-20T10:11:23;100426.59;;;21.00;45.52
74633;BME280;63139;52.018;8.552;2023-07-20T10:13:56;100420.09;;;20.72;45.93
74633;BME280;63139;52.018;8.552;2023-07-20T10:16:29;100425.94;;;20.69;47.42
74633;BME280;63139;52.018;8.552;2023-07-20T10:19:03;100424.72;;;21.00;46.94
74633;BME280;63139;52.018;8.552;2023-07-20T10:21:51;100420.78;;;21.31;47.65
74633;BME280;63139;52.018;8.552;2023-07-20T10:24:25;100411.63;;;21.60;47.97
74633;BME280;63139;52.018;8.552;2023-07-20T10:26:55;100420.50;;;21.89;47.00
74633;BME280;63139;52.018;8.552;2023-07-20T10:29:24;100418.38;;;21.91;46.55
74633;BME280;63139;52.018;8.552;2023-07-20T10:31:56;100418.75;;;21.66;45.29
74633;BME280;63139;52.018;8.552;2023-07-20T10:34:24;100416.13;;;21.72;45.79
74633;BME280;63139;52.018;8.552;2023-07-20T10:36:53;100418.38;;;21.91;46.08
74633;BME280;63139;52.018;8.552;2023-07-20T10:39:25;100413.28;;;22.06;45.40
74633;BME280;63139;52.018;8.552;2023-07-20T10:42:03;100414.59;;;22.21;44.84
74633;BME280;63139;52.018;8.552;2023-07-20T10:44:31;100409.25;;;22.42;45.98
74633;BME280;63139;52.018;8.552;2023-07-20T10:46:59;100408.28;;;22.70;44.63
74633;BME280;63139;52.018;8.552;2023-07-20T10:49:32;100412.91;;;22.92;44.97
74633;BME280;63139;52.018;8.552;2023-07-20T10:52:05;100411.28;;;22.91;42.94
74633;BME280;63139;52.018;8.552;2023-07-20T10:54:35;100416.38;;;22.87;44.33
74633;BME280;63139;52.018;8.552;2023-07-20T10:57:30;100411.47;;;22.84;40.58
74633;BME280;63139;52.018;8.552;2023-07-20T11:00:11;100413.03;;;22.80;40.96
74633;BME280;63139;52.018;8.552;2023-07-20T11:02:45;100412.72;;;22.76;41.75
74633;BME280;63139;52.018;8.552;2023-07-20T11:05:35;100416.09;;;22.67;40.99
74633;BME280;63139;52.018;8.552;2023-07-20T11:08:05;100413.63;;;22.82;42.73
74633;BME280;63139;52.018;8.552;2023-07-20T11:10:33;100410.91;;;22.82;43.52
74633;BME280;63139;52.018;8.552;2023-07-20T11:13:19;100404.53;;;22.71;41.25
74633;BME280;63139;52.018;8.552;2023-07-20T11:16:01;100413.28;;;22.62;41.35
74633;BME280;63139;52.018;8.552;2023-07-20T11:18:30;100407.66;;;22.63;43.28
74633;BME280;63139;52.018;8.552;2023-07-20T11:20:59;100414.03;;;22.74;43.06
74633;BME280;63139;52.018;8.552;2023-07-20T11:23:27;100403.78;;;22.76;43.39
74633;BME280;63139;52.018;8.552;2023-07-20T11:25:57;100406.59;;;22.64;43.29
74633;BME280;63139;52.018;8.552;2023-07-20T11:28:30;100405.97;;;22.40;43.01
74633;BME280;63139;52.018;8.552;2023-07-20T11:30:58;100408.59;;;22.19;43.54
74633;BME280;63139;52.018;8.552;2023-07-20T11:33:26;100405.50;;;22.10;43.36
74633;BME280;63139;52.018;8.552;2023-07-20T11:35:55;100402.97;;;22.03;43.33
74633;BME280;63139;52.018;8.552;2023-07-20T11:38:23;100400.19;;;21.98;43.11
74633;BME280;63139;52.018;8.552;2023-07-20T11:40:51;100395.88;;;21.97;43.95
74633;BME280;63139;52.018;8.552;2023-07-20T11:43:19;100390.38;;;21.92;43.91
74633;BME280;63139;52.018;8.552;2023-07-20T11:45:51;100389.44;;;21.87;43.36
74633;BME280;63139;52.018;8.552;2023-07-20T11:48:19;100387.56;;;21.87;43.61
74633;BME280;63139;52.018;8.552;2023-07-20T11:50:47;100390.69;;;21.96;43.76
74633;BME280;63139;52.018;8.552;2023-07-20T11:53:15;100390.06;;;22.22;43.70
74633;BME280;63139;52.018;8.552;2023-07-20T11:55:44;100390.13;;;22.11;43.79
74633;BME280;63139;52.018;8.552;2023-07-20T11:58:12;100384.72;;;21.94;43.24
74633;BME280;63139;52.018;8.552;2023-07-20T12:00:44;100388.22;;;21.94;42.85
74633;BME280;63139;52.018;8.552;2023-07-20T12:03:13;100380.34;;;22.04;43.01
74633;BME280;63139;52.018;8.552;2023-07-20T12:05:41;100381.31;;;22.15;42.94
74633;BME280;63139;52.018;8.552;2023-07-20T12:08:26;100383.28;;;22.03;43.14
74633;BME280;63139;52.018;8.552;2023-07-20T12:10:54;100388.44;;;22.04;43.08
74633;BME280;63139;52.018;8.552;2023-07-20T12:13:22;100383.91;;;22.10;42.65
74633;BME280;63139;52.018;8.552;2023-07-20T12:15:53;100375.47;;;22.23;42.13
74633;BME280;63139;52.018;8.552;2023-07-20T12:18:34;100367.94;;;22.42;41.18
74633;BME280;63139;52.018;8.552;2023-07-20T12:21:02;100373.63;;;22.62;41.89
74633;BME280;63139;52.018;8.552;2023-07-20T12:23:35;100366.91;;;22.65;41.79
74633;BME280;63139;52.018;8.552;2023-07-20T12:26:06;100366.38;;;22.84;41.02
74633;BME280;63139;52.018;8.552;2023-07-20T12:28:38;100372.81;;;23.05;40.35
74633;BME280;63139;52.018;8.552;2023-07-20T12:31:08;100353.34;;;23.25;40.53
74633;BME280;63139;52.018;8.552;2023-07-20T12:33:37;100360.53;;;23.41;39.94
74633;BME280;63139;52.018;8.552;2023-07-20T12:36:05;100351.66;;;23.46;40.99
74633;BME280;63139;52.018;8.552;2023-07-20T12:38:33;100356.63;;;23.54;40.66
74633;BME280;63139;52.018;8.552;2023-07-20T12:41:02;100357.25;;;23.66;39.14
74633;BME280;63139;52.018;8.552;2023-07-20T12:43:30;100348.94;;;23.73;39.33
74633;BME280;63139;52.018;8.552;2023-07-20T12:45:59;100350.56;;;23.74;39.22
74633;BME280;63139;52.018;8.552;2023-07-20T12:48:27;100350.22;;;23.65;39.80
74633;BME280;63139;52.018;8.552;2023-07-20T12:50:56;100352.91;;;23.60;38.77
74633;BME280;63139;52.018;8.552;2023-07-20T12:53:24;100343.13;;;23.54;39.09
74633;BME280;63139;52.018;8.552;2023-07-20T12:55:52;100337.06;;;23.47;39.52
74633;BME280;63139;52.018;8.552;2023-07-20T12:58:19;100348.53;;;23.54;38.91
74633;BME280;63139;52.018;8.552;2023-07-20T13:00:47;100337.75;;;23.59;38.08
74633;BME280;63139;52.018;8.552;2023-07-20T13:03:16;100335.81;;;23.54;39.35
74633;BME280;63139;52.018;8.552;2023-07-20T13:05:49;100330.66;;;23.85;38.31